Time;durP1;ratioP1;P1;durP2;ratioP2;P2;SDS_P1;SDS_P2;PMS_P1;PMS_P2;Temp;Humidity;BMP_temperature;BMP_pressure;BME280_temperature;BME280_humidity;BME280_pressure;Samples;Min_cycle;Max_cycle;Signal;HPM_P1;HPM_P2
2022/07/01 11:51:31;;;;;;;;;;;;;;;29.99;53.58;98084.38;5555722;24;1936426;-77
2022/07/01 11:53:59;;;;;;;;;;;;;;;30.04;57.61;98072.81;4795486;29;20352;-83
2022/07/01 11:56:30;;;;;;;;;;;;;;;30.11;53.04;98063.56;4791583;29;19968;-84
2022/07/01 11:58:57;;;;;;;;;;;;;;;30.22;49.04;98063.50;4806856;29;19948;-82
2022/07/01 12:01:30;;;;;;;;;;;;;;;30.32;46.79;98066.81;4805250;29;19956;-76
2022/07/01 12:03:59;;;;;;;;;;;;;;;30.38;53.04;98058.91;4807231;29;20339;-76
2022/07/01 12:06:27;;;;;;;;;;;;;;;30.37;53.39;98058.13;4807048;29;19955;-77
2022/07/01 12:08:56;;;;;;;;;;;;;;;30.37;46.51;98043.69;4803439;29;19948;-72
2022/07/01 12:11:26;;;;;;;;;;;;;;;30.45;45.42;98047.56;4798407;29;19951;-71
2022/07/01 12:13:56;;;;;;;;;;;;;;;30.61;47.58;98033.50;4805812;29;20245;-71
2022/07/01 12:16:23;;;;;;;;;;;;;;;30.63;58.27;98033.75;4807042;29;19964;-71
2022/07/01 12:18:52;;;;;;;;;;;;;;;30.70;52.06;98038.91;4804719;29;19951;-71
2022/07/01 12:21:19;;;;;;;;;;;;;;;30.60;42.60;98041.38;4806936;29;20035;-71
2022/07/01 12:24:07;;;;;;;;;;;;;;;30.65;49.85;98040.53;4805503;29;19957;-71
2022/07/01 12:26:46;;;;;;;;;;;;;;;30.72;49.66;98036.28;4805999;29;20398;-71
2022/07/01 12:29:14;;;;;;;;;;;;;;;30.74;44.53;98043.06;4805931;29;20358;-71
2022/07/01 12:31:42;;;;;;;;;;;;;;;30.79;44.77;98035.69;4807374;29;19961;-71
2022/07/01 12:34:09;;;;;;;;;;;;;;;30.86;44.41;98043.75;4803514;29;19957;-71
2022/07/01 12:36:36;;;;;;;;;;;;;;;30.86;47.64;98035.84;4793177;29;19969;-70
2022/07/01 12:39:05;;;;;;;;;;;;;;;30.91;48.88;98042.94;4807286;29;20318;-71
2022/07/01 12:41:33;;;;;;;;;;;;;;;30.90;51.66;98055.81;4807493;29;19949;-71
2022/07/01 12:44:23;;;;;;;;;;;;;;;30.93;43.43;98043.97;4806933;29;19959;-71
2022/07/01 12:46:51;;;;;;;;;;;;;;;30.95;54.36;98034.75;4806798;29;19962;-71
2022/07/01 12:49:20;;;;;;;;;;;;;;;30.96;51.27;98047.88;4805616;29;20341;-71
2022/07/01 12:51:47;;;;;;;;;;;;;;;31.01;58.60;98050.66;4807096;29;20238;-71
2022/07/01 12:54:34;;;;;;;;;;;;;;;30.89;54.20;98039.75;4806875;29;19948;-71
2022/07/01 12:57:01;;;;;;;;;;;;;;;30.86;49.74;98040.88;4803910;29;19951;-70
2022/07/01 12:59:29;;;;;;;;;;;;;;;30.88;46.18;98050.53;4806791;29;19963;-71
2022/07/01 13:02:00;;;;;;;;;;;;;;;30.86;48.28;98052.41;4806346;29;19956;-71
2022/07/01 13:04:28;;;;;;;;;;;;;;;30.99;47.55;98062.00;4806303;29;19962;-71
2022/07/01 13:06:56;;;;;;;;;;;;;;;31.04;52.32;98045.91;4805560;29;19947;-71
2022/07/01 13:09:23;;;;;;;;;;;;;;;31.04;49.59;98048.81;4805530;29;19960;-71
2022/07/01 13:11:50;;;;;;;;;;;;;;;31.15;51.77;98040.00;4805366;29;19952;-71
2022/07/01 13:14:18;;;;;;;;;;;;;;;31.16;54.31;98039.47;4806176;29;19948;-71
2022/07/01 13:16:45;;;;;;;;;;;;;;;31.05;47.08;98047.50;4805127;29;20276;-71
2022/07/01 13:19:12;;;;;;;;;;;;;;;30.99;48.47;98055.44;4805725;29;20322;-71
2022/07/01 13:21:39;;;;;;;;;;;;;;;30.96;48.45;98037.06;4806016;29;19960;-71
2022/07/01 13:24:07;;;;;;;;;;;;;;;31.00;47.72;98040.47;4808732;29;19950;-71
2022/07/01 13:26:54;;;;;;;;;;;;;;;31.02;54.47;98037.81;4807752;29;19959;-71
2022/07/01 13:29:21;;;;;;;;;;;;;;;30.93;49.28;98031.63;4806072;29;19948;-71
2022/07/01 13:31:52;;;;;;;;;;;;;;;30.93;49.28;98035.28;4805592;29;19958;-71
2022/07/01 13:34:19;;;;;;;;;;;;;;;30.95;48.76;98037.63;4807982;29;19953;-71
2022/07/01 13:36:46;;;;;;;;;;;;;;;30.89;53.87;98049.22;4809162;29;20274;-70
2022/07/01 13:39:14;;;;;;;;;;;;;;;30.90;46.12;98047.13;4809194;29;19956;-71
2022/07/01 13:41:41;;;;;;;;;;;;;;;30.88;52.96;98043.97;4809374;29;19948;-71
2022/07/01 13:44:08;;;;;;;;;;;;;;;30.85;46.07;98053.72;4809641;29;19945;-71
2022/07/01 13:46:38;;;;;;;;;;;;;;;30.99;40.34;98033.09;4806928;29;20240;-71
2022/07/01 13:49:07;;;;;;;;;;;;;;;31.01;43.77;98044.09;4806683;29;20267;-71
2022/07/01 13:51:34;;;;;;;;;;;;;;;31.05;46.24;98044.59;4807986;29;19979;-71
2022/07/01 13:54:02;;;;;;;;;;;;;;;30.97;45.52;98041.53;4811586;29;19955;-71
2022/07/01 13:56:29;;;;;;;;;;;;;;;30.90;41.20;98047.91;4808324;29;20230;-71
2022/07/01 13:58:56;;;;;;;;;;;;;;;30.87;43.88;98046.09;4810048;29;19950;-71
2022/07/01 14:01:23;;;;;;;;;;;;;;;30.85;49.66;98045.06;4809679;29;19951;-71
2022/07/01 14:03:51;;;;;;;;;;;;;;;30.74;42.49;98056.75;4810301;29;19947;-71
2022/07/01 14:06:19;;;;;;;;;;;;;;;30.69;43.74;98051.81;4809333;29;19952;-71
2022/07/01 14:08:46;;;;;;;;;;;;;;;30.61;42.51;98047.94;4810120;29;19956;-71
2022/07/01 14:11:14;;;;;;;;;;;;;;;30.67;46.63;98057.31;4809648;29;20324;-71
2022/07/01 14:13:41;;;;;;;;;;;;;;;30.63;47.26;98051.06;4809534;29;20210;-71
2022/07/01 14:16:09;;;;;;;;;;;;;;;30.57;46.60;98047.47;4809211;29;19974;-71
2022/07/01 14:18:37;;;;;;;;;;;;;;;30.58;45.80;98055.56;4809694;29;19955;-71
2022/07/01 14:21:05;;;;;;;;;;;;;;;30.45;47.57;98056.22;4809615;29;19957;-71
2022/07/01 14:23:32;;;;;;;;;;;;;;;30.51;48.64;98054.06;4809843;29;19950;-71
2022/07/01 14:26:00;;;;;;;;;;;;;;;30.50;49.21;98054.59;4808585;29;20153;-71
2022/07/01 14:28:27;;;;;;;;;;;;;;;30.54;45.09;98041.44;4806596;29;19958;-71
2022/07/01 14:30:55;;;;;;;;;;;;;;;30.53;49.05;98044.88;4806789;29;19954;-71
2022/07/01 14:33:22;;;;;;;;;;;;;;;30.51;49.44;98042.53;4808491;29;19949;-70
2022/07/01 14:35:51;;;;;;;;;;;;;;;30.46;50.28;98043.38;4808330;29;19998;-71
2022/07/01 14:38:21;;;;;;;;;;;;;;;30.47;47.00;98050.69;4812616;29;19957;-71
2022/07/01 14:40:52;;;;;;;;;;;;;;;30.36;46.91;98050.03;4807004;29;19954;-71
2022/07/01 14:43:31;;;;;;;;;;;;;;;30.32;49.55;98050.28;4805538;29;19958;-71
2022/07/01 14:46:08;;;;;;;;;;;;;;;30.30;50.10;98038.50;4803925;29;19956;-71
2022/07/01 14:48:45;;;;;;;;;;;;;;;30.33;46.67;98045.28;4806975;29;19954;-71
2022/07/01 14:51:13;;;;;;;;;;;;;;;30.34;49.59;98044.00;4806540;29;19954;-71
2022/07/01 14:54:14;;;;;;;;;;;;;;;30.31;49.09;98045.84;4805933;29;19964;-71
2022/07/01 14:56:46;;;;;;;;;;;;;;;30.33;48.69;98040.31;4805601;29;20362;-71
2022/07/01 14:59:17;;;;;;;;;;;;;;;30.27;48.96;98041.69;4808688;29;19956;-71
2022/07/01 15:01:45;;;;;;;;;;;;;;;30.21;44.86;98056.16;4808610;29;19960;-71
2022/07/01 15:04:12;;;;;;;;;;;;;;;30.22;47.44;98054.84;4808261;29;19948;-71
2022/07/01 15:06:39;;;;;;;;;;;;;;;30.20;48.06;98054.56;4808308;29;19953;-71
2022/07/01 15:09:06;;;;;;;;;;;;;;;30.17;44.50;98064.31;4807853;29;19949;-68
2022/07/01 15:11:34;;;;;;;;;;;;;;;30.20;46.18;98071.13;4807942;29;19956;-67
2022/07/01 15:14:01;;;;;;;;;;;;;;;30.15;50.62;98072.69;4808503;29;19955;-68
2022/07/01 15:16:29;;;;;;;;;;;;;;;30.09;48.04;98071.97;4808108;29;19974;-68
2022/07/01 15:18:57;;;;;;;;;;;;;;;30.06;46.64;98064.38;4793167;29;19958;-69
2022/07/01 15:21:25;;;;;;;;;;;;;;;29.96;46.83;98066.03;4807673;29;19953;-69
2022/07/01 15:23:52;;;;;;;;;;;;;;;29.98;49.62;98060.50;4805477;29;19955;-68
2022/07/01 15:26:21;;;;;;;;;;;;;;;29.94;48.02;98071.56;4807057;29;19956;-68
2022/07/01 15:28:48;;;;;;;;;;;;;;;29.89;44.27;98066.63;4805796;29;19951;-67
2022/07/01 15:31:16;;;;;;;;;;;;;;;29.84;46.40;98064.56;4804828;29;19951;-67
2022/07/01 15:33:58;;;;;;;;;;;;;;;29.78;46.78;98060.94;4805230;29;19979;-68
2022/07/01 15:36:26;;;;;;;;;;;;;;;29.73;44.51;98059.63;4806923;29;20266;-68
2022/07/01 15:38:54;;;;;;;;;;;;;;;29.74;46.37;98058.28;4791367;29;19980;-68
2022/07/01 15:41:24;;;;;;;;;;;;;;;29.71;46.37;98068.00;4806885;29;19949;-69
2022/07/01 15:43:52;;;;;;;;;;;;;;;29.67;46.59;98063.84;4805019;29;19956;-68
2022/07/01 15:46:20;;;;;;;;;;;;;;;29.60;50.27;98067.28;4801299;29;19979;-68
2022/07/01 15:48:48;;;;;;;;;;;;;;;29.55;49.17;98053.69;4807248;29;19949;-68
2022/07/01 15:51:16;;;;;;;;;;;;;;;29.47;47.65;98058.44;4807076;29;19955;-68
2022/07/01 15:53:43;;;;;;;;;;;;;;;29.44;47.79;98060.31;4807631;29;20621;-68
2022/07/01 15:56:10;;;;;;;;;;;;;;;29.40;46.86;98059.00;4807714;29;19975;-67
2022/07/01 15:58:37;;;;;;;;;;;;;;;29.37;45.27;98051.47;4807049;29;19953;-68
2022/07/01 16:01:05;;;;;;;;;;;;;;;29.35;47.66;98054.84;4806504;29;19947;-68
2022/07/01 16:03:32;;;;;;;;;;;;;;;29.31;45.81;98059.31;4806992;29;19953;-68
2022/07/01 16:06:02;;;;;;;;;;;;;;;29.26;48.33;98053.06;4806308;29;19958;-69
2022/07/01 16:08:33;;;;;;;;;;;;;;;29.19;47.43;98061.47;4807343;29;19960;-69
2022/07/01 16:11:10;;;;;;;;;;;;;;;29.17;45.28;98059.09;4807135;29;19988;-69
2022/07/01 16:13:38;;;;;;;;;;;;;;;29.14;48.06;98057.28;4805535;29;19955;-69
2022/07/01 16:16:06;;;;;;;;;;;;;;;29.13;47.83;98054.91;4805557;29;19950;-70
2022/07/01 16:18:34;;;;;;;;;;;;;;;29.07;49.76;98046.31;4806914;29;19947;-68
2022/07/01 16:24:19;;;;;;;;;;;;;;;28.96;48.96;98054.97;5210301;24;19980;-72
2022/07/01 16:26:46;;;;;;;;;;;;;;;28.95;51.91;98059.19;4793702;29;19958;-73
2022/07/01 16:29:14;;;;;;;;;;;;;;;28.87;48.91;98052.41;4809556;29;19949;-73
2022/07/01 16:31:43;;;;;;;;;;;;;;;28.92;50.83;98045.06;4813091;29;19957;-73
2022/07/01 16:34:11;;;;;;;;;;;;;;;28.79;51.75;98062.88;4814375;29;20004;-72
2022/07/01 16:36:43;;;;;;;;;;;;;;;28.74;49.65;98051.38;4808084;29;19971;-73
2022/07/01 16:39:14;;;;;;;;;;;;;;;28.72;51.86;98054.00;4809976;29;19969;-72
2022/07/01 16:41:42;;;;;;;;;;;;;;;28.61;52.63;98049.84;4814343;29;20382;-73
2022/07/01 16:44:13;;;;;;;;;;;;;;;28.57;51.76;98045.63;4815864;29;19957;-73
2022/07/01 16:46:41;;;;;;;;;;;;;;;28.54;54.40;98049.56;4814807;29;19955;-72
2022/07/01 16:49:10;;;;;;;;;;;;;;;28.51;54.66;98060.03;4814335;29;19952;-72
2022/07/01 16:57:12;;;;;;;;;;;;;;;28.37;55.07;98058.22;4793705;29;20200;-70
2022/07/01 16:59:39;;;;;;;;;;;;;;;28.32;54.86;98052.47;4807261;29;19958;-70
2022/07/01 17:02:07;;;;;;;;;;;;;;;28.33;54.54;98059.78;4800548;29;19946;-69
2022/07/01 17:04:35;;;;;;;;;;;;;;;28.34;54.87;98059.25;4803097;29;19952;-69
2022/07/01 17:07:03;;;;;;;;;;;;;;;28.24;57.50;98065.81;4798972;29;19951;-68
2022/07/01 17:09:31;;;;;;;;;;;;;;;28.18;54.02;98062.94;4800624;29;19961;-68
2022/07/01 17:12:00;;;;;;;;;;;;;;;28.15;56.53;98072.59;4799976;29;19951;-68
2022/07/01 17:14:29;;;;;;;;;;;;;;;28.15;57.05;98080.44;4797526;29;20275;-69
2022/07/01 17:16:56;;;;;;;;;;;;;;;28.14;55.26;98081.75;4804356;29;19972;-69
2022/07/01 17:19:23;;;;;;;;;;;;;;;28.05;59.92;98077.03;4807721;29;19975;-69
2022/07/01 17:21:54;;;;;;;;;;;;;;;27.99;59.18;98085.66;4801288;29;19953;-69
2022/07/01 17:24:23;;;;;;;;;;;;;;;27.94;61.38;98074.94;4795538;29;19956;-68
2022/07/01 17:27:09;;;;;;;;;;;;;;;27.91;61.32;98078.84;4800023;29;19958;-69
2022/07/01 17:29:40;;;;;;;;;;;;;;;27.87;59.32;98089.03;4800101;29;19965;-68
2022/07/01 17:32:09;;;;;;;;;;;;;;;27.90;61.43;98077.25;4803905;29;19951;-69
2022/07/01 17:34:37;;;;;;;;;;;;;;;27.78;62.71;98089.28;4800873;29;19958;-69
2022/07/01 17:37:04;;;;;;;;;;;;;;;27.75;61.73;98081.69;4800678;29;19976;-69
2022/07/01 17:39:35;;;;;;;;;;;;;;;27.72;63.42;98091.34;4801104;29;19952;-69
2022/07/01 17:42:03;;;;;;;;;;;;;;;27.67;63.27;98095.78;4805179;29;19962;-69
2022/07/01 17:44:30;;;;;;;;;;;;;;;27.66;63.01;98097.06;4807267;29;19950;-69
2022/07/01 17:46:59;;;;;;;;;;;;;;;27.63;63.31;98088.72;4803331;29;19951;-69
2022/07/01 17:49:27;;;;;;;;;;;;;;;27.59;63.37;98096.78;4798350;29;19956;-69
2022/07/01 17:51:55;;;;;;;;;;;;;;;27.51;63.53;98096.50;4803551;29;19948;-69
2022/07/01 17:54:27;;;;;;;;;;;;;;;27.52;63.49;98092.34;4801940;29;19946;-70
2022/07/01 17:56:56;;;;;;;;;;;;;;;27.41;65.41;98098.06;4794467;29;19987;-69
2022/07/01 17:59:24;;;;;;;;;;;;;;;27.34;66.98;98092.75;4793493;29;19950;-69
2022/07/01 18:01:52;;;;;;;;;;;;;;;27.33;65.62;98108.41;4791950;30;19958;-69
2022/07/01 18:04:26;;;;;;;;;;;;;;;27.29;67.16;98097.16;4792248;30;19946;-69
2022/07/01 18:06:54;;;;;;;;;;;;;;;27.26;66.62;98106.84;4792710;30;19946;-69
2022/07/01 18:09:21;;;;;;;;;;;;;;;27.23;68.44;98107.88;4790749;29;20365;-69
2022/07/01 18:12:02;;;;;;;;;;;;;;;27.13;67.04;98115.13;4792477;30;19952;-69
2022/07/01 18:14:29;;;;;;;;;;;;;;;27.08;68.62;98109.34;4791782;30;19956;-69
2022/07/01 18:35:50;;;;;;;;;;;;;;;26.58;73.86;98126.22;4810284;29;19971;-73
2022/07/01 18:38:17;;;;;;;;;;;;;;;26.47;73.33;98124.06;4823289;29;19980;-73
2022/07/01 18:40:45;;;;;;;;;;;;;;;26.50;74.38;98128.00;4820801;29;19957;-72
2022/07/01 18:43:12;;;;;;;;;;;;;;;26.38;70.60;98129.97;4820635;29;19947;-72
2022/07/01 18:45:39;;;;;;;;;;;;;;;26.42;70.78;98130.53;4816557;29;19957;-72
2022/07/01 18:48:07;;;;;;;;;;;;;;;26.35;70.96;98138.81;4822503;29;19947;-72
2022/07/01 18:50:34;;;;;;;;;;;;;;;26.30;72.32;98136.69;4824394;29;19959;-72
2022/07/01 18:53:02;;;;;;;;;;;;;;;26.29;74.05;98132.25;4826029;29;19959;-72
2022/07/01 18:55:30;;;;;;;;;;;;;;;26.20;73.88;98132.41;4824827;29;19952;-72
2022/07/01 18:58:01;;;;;;;;;;;;;;;26.20;72.88;98141.00;4827514;29;19970;-72
2022/07/01 19:00:30;;;;;;;;;;;;;;;26.11;74.05;98133.38;4824892;29;19948;-72
2022/07/01 19:02:58;;;;;;;;;;;;;;;26.07;73.80;98153.63;4823979;29;19948;-72
2022/07/01 19:05:25;;;;;;;;;;;;;;;25.98;73.06;98150.16;4825917;29;19954;-72
2022/07/01 19:07:52;;;;;;;;;;;;;;;25.94;73.23;98153.25;4826115;29;19956;-72
2022/07/01 19:10:19;;;;;;;;;;;;;;;25.89;73.50;98156.06;4818708;29;19949;-72
2022/07/01 19:12:47;;;;;;;;;;;;;;;25.89;74.43;98156.06;4821927;29;19955;-72
2022/07/01 19:15:14;;;;;;;;;;;;;;;25.85;76.60;98164.06;4824851;29;19952;-73
2022/07/01 19:17:41;;;;;;;;;;;;;;;25.63;75.72;98164.59;4822731;29;19972;-72
2022/07/01 19:20:09;;;;;;;;;;;;;;;25.64;75.68;98166.19;4820543;29;19947;-72
2022/07/01 19:22:37;;;;;;;;;;;;;;;25.61;75.93;98169.25;4823676;29;19967;-73
2022/07/01 19:25:04;;;;;;;;;;;;;;;25.63;75.44;98175.31;4823308;29;19999;-73
2022/07/01 19:27:31;;;;;;;;;;;;;;;25.57;73.92;98177.28;4825610;29;19958;-73
2022/07/01 19:30:00;;;;;;;;;;;;;;;25.57;76.57;98180.16;4826711;29;20313;-73
2022/07/01 19:32:28;;;;;;;;;;;;;;;25.50;75.71;98186.31;4826915;29;19948;-72
2022/07/01 19:34:55;;;;;;;;;;;;;;;25.41;77.54;98195.78;4819555;29;19976;-73
2022/07/01 19:37:24;;;;;;;;;;;;;;;25.36;79.13;98196.50;4819185;29;19979;-73
2022/07/01 19:39:51;;;;;;;;;;;;;;;25.30;79.97;98198.53;4821949;29;19948;-73
2022/07/01 19:42:19;;;;;;;;;;;;;;;25.16;80.32;98199.38;4825609;29;19948;-73
2022/07/01 19:44:46;;;;;;;;;;;;;;;25.11;80.52;98200.06;4819015;29;19964;-73
2022/07/01 19:47:13;;;;;;;;;;;;;;;25.02;80.50;98214.50;4812565;29;20246;-73
2022/07/01 19:49:40;;;;;;;;;;;;;;;25.05;80.47;98222.88;4792344;29;19948;-73
2022/07/01 19:52:08;;;;;;;;;;;;;;;24.92;82.79;98219.53;4808334;29;19949;-73
2022/07/01 19:54:35;;;;;;;;;;;;;;;24.86;82.31;98221.53;4813355;29;19948;-73
2022/07/01 19:57:03;;;;;;;;;;;;;;;24.83;83.39;98231.13;4815047;29;20253;-73
2022/07/01 19:59:57;;;;;;;;;;;;;;;24.76;83.77;98235.16;4811816;29;19952;-72
2022/07/01 20:02:25;;;;;;;;;;;;;;;24.82;82.49;98240.97;4820033;29;19953;-72
2022/07/01 20:04:53;;;;;;;;;;;;;;;24.78;83.32;98229.75;4820703;29;19958;-73
2022/07/01 20:07:20;;;;;;;;;;;;;;;24.72;86.01;98242.34;4809735;29;19954;-73
2022/07/01 20:09:48;;;;;;;;;;;;;;;24.76;87.67;98252.31;4826006;29;19961;-72
2022/07/01 20:12:18;;;;;;;;;;;;;;;24.69;89.82;98249.06;4826139;29;20265;-72
2022/07/01 20:14:46;;;;;;;;;;;;;;;24.69;89.93;98252.72;4798834;29;20263;-72
2022/07/01 20:17:13;;;;;;;;;;;;;;;24.66;92.50;98258.63;4825763;29;19949;-72
2022/07/01 20:19:40;;;;;;;;;;;;;;;24.61;96.96;98262.16;4825945;29;19963;-72
2022/07/01 20:22:09;;;;;;;;;;;;;;;24.55;93.69;98267.78;4820333;29;19952;-72
2022/07/01 20:24:36;;;;;;;;;;;;;;;24.52;91.25;98271.66;4823427;29;20395;-72
2022/07/01 20:27:04;;;;;;;;;;;;;;;24.39;91.53;98274.00;4824153;29;19956;-72
2022/07/01 20:29:31;;;;;;;;;;;;;;;24.38;93.14;98277.34;4815863;29;19951;-73
2022/07/01 20:31:58;;;;;;;;;;;;;;;24.29;94.50;98281.06;4824585;29;20332;-73
2022/07/01 20:34:26;;;;;;;;;;;;;;;24.20;94.88;98288.94;4826952;29;20371;-73
2022/07/01 20:36:53;;;;;;;;;;;;;;;24.09;93.15;98296.00;4828758;29;20211;-73
2022/07/01 20:39:20;;;;;;;;;;;;;;;24.04;93.59;98285.22;4812511;29;19949;-73
2022/07/01 20:41:47;;;;;;;;;;;;;;;24.02;96.62;98287.78;4829491;29;19980;-73
2022/07/01 20:44:15;;;;;;;;;;;;;;;23.96;94.76;98289.75;4829075;29;19951;-73
2022/07/01 20:46:42;;;;;;;;;;;;;;;23.91;95.17;98290.44;4826261;29;19957;-74
2022/07/01 20:49:09;;;;;;;;;;;;;;;23.93;94.83;98287.09;4812905;29;20380;-74
2022/07/01 20:51:37;;;;;;;;;;;;;;;23.73;96.83;98290.56;4822759;29;19949;-73
2022/07/01 20:54:04;;;;;;;;;;;;;;;23.80;91.08;98298.75;4821413;29;19954;-73
2022/07/01 20:56:31;;;;;;;;;;;;;;;23.90;89.02;98302.34;4828509;29;19951;-73
2022/07/01 20:59:02;;;;;;;;;;;;;;;23.98;89.42;98292.13;4817571;29;20255;-73
2022/07/01 21:01:44;;;;;;;;;;;;;;;23.91;93.04;98301.88;4814487;29;19956;-73
2022/07/01 21:04:13;;;;;;;;;;;;;;;23.89;92.26;98295.06;4823443;29;19956;-73
2022/07/01 21:06:40;;;;;;;;;;;;;;;23.82;94.42;98299.06;4829424;29;19951;-73
